Time;durP1;ratioP1;P1;durP2;ratioP2;P2;SDS_P1;SDS_P2;PMS_P1;PMS_P2;Temp;Humidity;BMP_temperature;BMP_pressure;BME280_temperature;BME280_humidity;BME280_pressure;Samples;Min_cycle;Max_cycle;Signal;HPM_P1;HPM_P2
2021/06/18 00:00:55;;;;;;;8.47;7.67;;;29.00;63.00;;;;;;4963263;28;20490;-75
2021/06/18 00:03:21;;;;;;;8.73;7.90;;;29.00;63.50;;;;;;4963780;28;20214;-74
2021/06/18 00:05:47;;;;;;;8.50;7.70;;;28.70;63.40;;;;;;4963496;28;20198;-74
2021/06/18 00:08:13;;;;;;;8.13;7.33;;;28.50;64.50;;;;;;4961794;28;20915;-74
2021/06/18 00:10:39;;;;;;;8.90;8.00;;;28.60;64.40;;;;;;4979142;28;20186;-75
2021/06/18 00:13:04;;;;;;;8.20;7.47;;;28.40;65.00;;;;;;4947045;28;20859;-73
2021/06/18 00:15:30;;;;;;;8.10;7.37;;;28.40;65.30;;;;;;4963486;28;20253;-74
2021/06/18 00:17:56;;;;;;;8.33;7.57;;;28.30;65.40;;;;;;4961281;28;20207;-74
2021/06/18 00:20:21;;;;;;;7.97;7.20;;;28.00;65.70;;;;;;4963572;28;20182;-75
2021/06/18 00:22:47;;;;;;;8.83;7.37;;;28.20;65.50;;;;;;4964087;28;20278;-72
2021/06/18 00:25:13;;;;;;;8.00;7.40;;;28.20;65.50;;;;;;4961486;28;20754;-75
2021/06/18 00:27:39;;;;;;;8.57;7.90;;;28.10;65.70;;;;;;4963188;28;20191;-74
2021/06/18 00:30:07;;;;;;;8.00;7.40;;;28.20;66.30;;;;;;4962623;28;20437;-74
2021/06/18 00:32:33;;;;;;;7.60;6.40;;;27.80;65.90;;;;;;4962163;28;20202;-74
2021/06/18 00:34:59;;;;;;;7.97;7.27;;;27.90;66.30;;;;;;4964785;28;20468;-74
2021/06/18 00:37:24;;;;;;;8.77;7.97;;;28.00;66.50;;;;;;4965199;28;20279;-74
2021/06/18 00:39:50;;;;;;;10.03;7.80;;;27.90;66.80;;;;;;4963834;28;20430;-76
2021/06/18 00:42:16;;;;;;;8.03;7.40;;;27.60;67.20;;;;;;4963033;28;20187;-74
2021/06/18 00:44:41;;;;;;;8.67;7.93;;;27.70;68.20;;;;;;4964764;28;20277;-74
2021/06/18 00:47:15;;;;;;;8.27;7.50;;;27.70;67.70;;;;;;4962556;28;20226;-75
2021/06/18 00:49:41;;;;;;;8.80;6.87;;;27.70;67.00;;;;;;4964402;28;20558;-75
2021/06/18 00:52:07;;;;;;;8.20;7.50;;;27.70;67.50;;;;;;4961618;28;20465;-73
2021/06/18 00:54:32;;;;;;;8.97;8.17;;;27.70;67.30;;;;;;4962415;28;20214;-74
2021/06/18 00:57:00;;;;;;;8.73;7.83;;;27.70;67.20;;;;;;4963612;28;20253;-74
2021/06/18 00:59:26;;;;;;;8.37;7.57;;;27.50;68.30;;;;;;4961970;28;20197;-75
2021/06/18 01:01:52;;;;;;;9.27;8.37;;;27.40;69.30;;;;;;4962243;28;20450;-76
2021/06/18 01:04:22;;;;;;;9.90;9.00;;;27.10;70.00;;;;;;4964080;28;20529;-75
2021/06/18 01:07:03;;;;;;;9.27;8.43;;;26.90;71.60;;;;;;4960937;28;20434;-75
2021/06/18 01:09:36;;;;;;;10.20;9.20;;;26.90;72.30;;;;;;4964141;28;20425;-74
2021/06/18 01:12:05;;;;;;;9.90;9.10;;;26.60;73.00;;;;;;4963317;28;20429;-75
2021/06/18 01:15:16;;;;;;;11.10;8.77;;;26.30;74.70;;;;;;4963341;28;20458;-74
2021/06/18 01:18:11;;;;;;;9.43;8.53;;;26.30;75.10;;;;;;4960143;28;21009;-74
2021/06/18 01:21:14;;;;;;;9.50;8.60;;;26.30;75.90;;;;;;4960540;28;20437;-75
2021/06/18 01:23:39;;;;;;;11.47;10.50;;;26.30;76.40;;;;;;4978700;28;20563;-74
2021/06/18 01:26:24;;;;;;;10.40;9.40;;;26.20;77.70;;;;;;4961640;28;20437;-75
2021/06/18 01:28:53;;;;;;;10.07;9.30;;;26.30;78.20;;;;;;4970074;28;20203;-75
2021/06/18 01:31:23;;;;;;;11.47;10.27;;;26.10;79.70;;;;;;4965113;28;20520;-75
2021/06/18 01:33:57;;;;;;;12.23;11.23;;;26.00;81.90;;;;;;4965573;28;20895;-74
2021/06/18 01:36:23;;;;;;;14.00;11.33;;;25.80;84.20;;;;;;4967459;28;20441;-75
2021/06/18 01:38:52;;;;;;;14.30;13.07;;;25.70;87.40;;;;;;4968722;28;20465;-76
2021/06/18 01:41:23;;;;;;;13.67;12.47;;;25.70;89.70;;;;;;4966607;28;20434;-75
2021/06/18 01:43:51;;;;;;;13.90;12.60;;;25.50;90.90;;;;;;4966539;28;20544;-74
2021/06/18 01:46:22;;;;;;;14.07;12.77;;;25.50;92.00;;;;;;4967133;28;20448;-75
2021/06/18 01:48:52;;;;;;;15.17;13.47;;;25.30;93.00;;;;;;4966973;28;20465;-74
2021/06/18 01:51:19;;;;;;;15.23;13.60;;;25.30;94.40;;;;;;4966975;28;21084;-74
2021/06/18 01:53:47;;;;;;;15.37;13.83;;;25.30;95.20;;;;;;4965389;28;20556;-74
2021/06/18 01:56:16;;;;;;;15.10;13.77;;;25.30;96.00;;;;;;4966331;28;20456;-74
2021/06/18 01:58:44;;;;;;;15.40;14.10;;;25.30;96.70;;;;;;4966687;28;20560;-75
2021/06/18 02:01:12;;;;;;;16.63;15.00;;;25.30;97.50;;;;;;4964299;28;20434;-76
2021/06/18 02:03:39;;;;;;;17.30;15.67;;;25.30;98.40;;;;;;4967328;28;20507;-76
2021/06/18 02:06:07;;;;;;;15.03;13.83;;;25.30;99.10;;;;;;4965011;28;20476;-75
2021/06/18 02:08:33;;;;;;;15.50;13.80;;;25.30;99.60;;;;;;4965878;28;20516;-76
2021/06/18 02:11:01;;;;;;;15.53;14.10;;;25.40;99.90;;;;;;4967320;28;20936;-76
2021/06/18 02:13:28;;;;;;;16.13;14.47;;;25.40;99.90;;;;;;4963783;28;20589;-74
2021/06/18 02:15:55;;;;;;;16.03;14.50;;;25.40;99.90;;;;;;4967380;28;20477;-75
2021/06/18 02:18:22;;;;;;;14.53;13.03;;;25.40;99.90;;;;;;4965417;28;21005;-74
2021/06/18 02:20:51;;;;;;;15.70;14.17;;;25.40;99.90;;;;;;4965797;28;20418;-74
2021/06/18 02:23:17;;;;;;;15.40;14.10;;;25.30;99.90;;;;;;4965831;28;20477;-75
2021/06/18 02:25:44;;;;;;;14.70;13.30;;;25.50;99.90;;;;;;4966958;28;20438;-74
2021/06/18 02:28:11;;;;;;;14.70;12.60;;;25.40;99.90;;;;;;4965994;28;20210;-75
2021/06/18 02:30:37;;;;;;;15.20;14.00;;;25.40;99.90;;;;;;4964559;28;20504;-75
2021/06/18 02:33:10;;;;;;;15.30;13.90;;;25.30;99.90;;;;;;4947451;28;20810;-75
2021/06/18 02:35:36;;;;;;;15.70;14.30;;;25.20;99.90;;;;;;4963994;28;20442;-75
2021/06/18 02:38:02;;;;;;;14.00;12.90;;;25.30;99.90;;;;;;4966349;28;20636;-75
2021/06/18 02:40:28;;;;;;;13.33;12.17;;;25.30;99.90;;;;;;4964547;28;20446;-75
2021/06/18 02:42:53;;;;;;;13.53;12.23;;;25.40;99.90;;;;;;4964609;28;20466;-73
2021/06/18 02:45:19;;;;;;;13.40;12.10;;;25.30;99.90;;;;;;4966101;28;20187;-74
2021/06/18 02:48:03;;;;;;;14.70;12.10;;;25.30;99.90;;;;;;4963359;28;20218;-75
2021/06/18 02:50:39;;;;;;;12.63;11.53;;;25.20;99.90;;;;;;4966507;28;20647;-75
2021/06/18 02:53:25;;;;;;;12.77;11.57;;;25.30;99.90;;;;;;4966891;28;20954;-75
2021/06/18 02:56:00;;;;;;;12.13;11.13;;;25.20;99.90;;;;;;4963041;28;20444;-75
2021/06/18 02:58:34;;;;;;;12.50;11.17;;;25.20;99.90;;;;;;4963511;28;21066;-73
2021/06/18 03:01:03;;;;;;;12.13;11.00;;;25.10;99.90;;;;;;4965111;28;20917;-75
2021/06/18 03:03:34;;;;;;;11.87;10.87;;;25.20;99.90;;;;;;4963463;28;20471;-76
2021/06/18 03:06:03;;;;;;;11.57;10.53;;;25.20;99.90;;;;;;4964818;28;20433;-74
2021/06/18 03:08:34;;;;;;;11.10;10.20;;;25.20;99.90;;;;;;4963367;28;20442;-74
2021/06/18 03:11:01;;;;;;;10.93;10.03;;;25.20;99.90;;;;;;4965812;28;20499;-76
2021/06/18 03:13:32;;;;;;;10.93;10.10;;;25.20;99.90;;;;;;4966622;28;20560;-75
2021/06/18 03:15:58;;;;;;;10.67;9.67;;;25.20;99.90;;;;;;4965854;28;20441;-75
2021/06/18 03:18:25;;;;;;;11.00;9.60;;;25.20;99.90;;;;;;4964773;28;20472;-73
2021/06/18 03:20:56;;;;;;;10.80;9.90;;;25.10;99.90;;;;;;4963619;28;20190;-76
2021/06/18 03:23:23;;;;;;;11.70;10.50;;;25.20;99.90;;;;;;4964266;28;20453;-76
2021/06/18 03:25:49;;;;;;;10.00;9.10;;;25.10;99.90;;;;;;4946970;28;20536;-75
2021/06/18 03:28:16;;;;;;;10.20;9.13;;;25.20;99.90;;;;;;4965312;28;20517;-76
2021/06/18 03:30:47;;;;;;;10.20;9.20;;;25.20;99.90;;;;;;4965751;28;20460;-76
2021/06/18 03:33:12;;;;;;;10.10;9.07;;;25.20;99.90;;;;;;4964419;28;20472;-74
2021/06/18 03:35:39;;;;;;;10.67;9.77;;;25.20;99.80;;;;;;4963287;28;20450;-74
2021/06/18 03:38:05;;;;;;;10.30;9.43;;;25.20;99.40;;;;;;4965417;28;20214;-74
2021/06/18 03:40:34;;;;;;;9.47;8.67;;;25.20;98.70;;;;;;4964436;28;20417;-75
2021/06/18 03:43:00;;;;;;;8.63;7.80;;;25.20;98.20;;;;;;4961677;28;20442;-73
2021/06/18 03:45:26;;;;;;;9.83;8.83;;;25.20;97.40;;;;;;4961892;28;21275;-76
2021/06/18 03:47:53;;;;;;;8.57;7.77;;;25.20;96.70;;;;;;4966643;28;20185;-76
2021/06/18 03:50:23;;;;;;;8.17;7.37;;;25.20;96.30;;;;;;4966094;28;20560;-76
2021/06/18 03:52:49;;;;;;;9.17;8.03;;;25.20;95.50;;;;;;4963228;28;20452;-76
2021/06/18 03:55:15;;;;;;;8.57;7.77;;;25.30;94.70;;;;;;4965590;28;20541;-76
2021/06/18 03:57:44;;;;;;;7.87;7.10;;;25.30;94.20;;;;;;4947568;28;20623;-75
2021/06/18 04:00:10;;;;;;;8.47;7.67;;;25.30;94.00;;;;;;4947314;28;20565;-74
2021/06/18 04:02:37;;;;;;;8.53;7.80;;;25.20;93.90;;;;;;4963938;28;20448;-76
2021/06/18 04:05:04;;;;;;;7.20;6.50;;;25.30;93.50;;;;;;4961255;28;20469;-75
2021/06/18 04:07:31;;;;;;;6.47;5.90;;;25.30;93.10;;;;;;4965794;28;20437;-75
2021/06/18 04:09:58;;;;;;;9.90;6.73;;;25.30;92.90;;;;;;4966090;28;20963;-76
2021/06/18 04:12:24;;;;;;;6.93;6.30;;;25.30;92.60;;;;;;4964863;28;20662;-75
2021/06/18 04:14:50;;;;;;;6.93;6.33;;;25.30;92.50;;;;;;4964076;28;20555;-75
2021/06/18 04:17:16;;;;;;;7.10;6.30;;;25.20;92.40;;;;;;4964141;28;20532;-75
2021/06/18 04:19:45;;;;;;;6.37;5.87;;;25.20;92.50;;;;;;4962339;28;20354;-74
2021/06/18 04:22:16;;;;;;;9.33;6.40;;;25.20;92.70;;;;;;4962782;28;20562;-73
2021/06/18 04:24:41;;;;;;;7.07;6.37;;;25.20;92.30;;;;;;4963595;28;20468;-73
2021/06/18 04:27:07;;;;;;;9.20;5.87;;;25.20;92.20;;;;;;4947804;28;20959;-72
2021/06/18 04:29:33;;;;;;;6.73;5.90;;;25.20;92.30;;;;;;4964626;28;20186;-74
2021/06/18 04:31:58;;;;;;;6.13;5.30;;;25.20;92.30;;;;;;4963228;28;20243;-75
2021/06/18 04:34:24;;;;;;;5.67;5.07;;;25.20;92.30;;;;;;4962455;28;20214;-74
2021/06/18 04:36:50;;;;;;;6.40;5.90;;;25.30;92.30;;;;;;4959735;28;21012;-74
2021/06/18 04:39:16;;;;;;;6.33;5.80;;;25.20;92.30;;;;;;4962540;28;20226;-75
2021/06/18 04:41:43;;;;;;;6.43;5.80;;;25.20;92.30;;;;;;4948439;28;20203;-75
2021/06/18 04:44:09;;;;;;;6.40;5.80;;;25.20;92.30;;;;;;4962008;28;20210;-74
2021/06/18 04:46:35;;;;;;;6.07;5.57;;;25.30;92.10;;;;;;4962373;28;21006;-75
2021/06/18 04:49:00;;;;;;;6.77;6.23;;;25.40;91.90;;;;;;4964284;28;20437;-76
2021/06/18 04:51:26;;;;;;;6.70;6.20;;;25.50;91.70;;;;;;4963125;28;20453;-74
2021/06/18 04:53:53;;;;;;;11.80;6.90;;;25.50;91.40;;;;;;4964533;28;20218;-77
2021/06/18 04:56:19;;;;;;;7.33;6.13;;;25.50;91.60;;;;;;4963693;28;20260;-76
2021/06/18 04:58:45;;;;;;;6.10;5.60;;;25.50;91.50;;;;;;4963920;28;20501;-75
2021/06/18 05:01:11;;;;;;;6.57;5.90;;;25.60;91.20;;;;;;4964893;28;20190;-74
2021/06/18 05:03:36;;;;;;;6.50;6.00;;;25.60;91.10;;;;;;4966243;28;20256;-75
2021/06/18 05:06:03;;;;;;;5.70;5.20;;;25.60;90.90;;;;;;4968520;28;20190;-76
2021/06/18 05:08:29;;;;;;;6.33;5.80;;;25.50;91.00;;;;;;4968259;28;20194;-75
2021/06/18 05:10:54;;;;;;;6.63;6.00;;;25.60;91.10;;;;;;4965884;28;20942;-76
2021/06/18 05:13:20;;;;;;;6.10;5.60;;;25.60;91.20;;;;;;4966517;28;20221;-76
2021/06/18 05:15:46;;;;;;;7.17;6.57;;;25.60;91.20;;;;;;4966936;28;20318;-76
2021/06/18 05:18:11;;;;;;;8.73;5.23;;;25.60;91.30;;;;;;4965486;28;20902;-73
2021/06/18 05:20:37;;;;;;;5.90;5.40;;;25.70;90.80;;;;;;4966451;28;20196;-77
2021/06/18 05:23:03;;;;;;;6.73;6.17;;;25.80;91.20;;;;;;4964699;28;20190;-76
2021/06/18 05:25:28;;;;;;;6.47;5.50;;;25.70;91.50;;;;;;4966402;28;20213;-74
2021/06/18 05:27:54;;;;;;;6.33;5.73;;;25.70;91.30;;;;;;4967037;28;20203;-75
2021/06/18 05:30:20;;;;;;;6.07;5.53;;;25.80;91.30;;;;;;4967161;28;20302;-76
2021/06/18 05:32:47;;;;;;;6.07;5.47;;;25.70;91.40;;;;;;4966576;28;20300;-77
2021/06/18 05:35:14;;;;;;;5.63;5.10;;;25.70;91.40;;;;;;4967502;28;20604;-76
2021/06/18 05:37:39;;;;;;;6.47;5.97;;;25.90;91.00;;;;;;4967567;28;20553;-75
2021/06/18 05:40:06;;;;;;;5.70;5.20;;;25.90;91.30;;;;;;4966038;28;20799;-76
2021/06/18 05:42:32;;;;;;;5.27;4.70;;;25.90;91.30;;;;;;4967227;28;20175;-76
2021/06/18 05:44:58;;;;;;;4.93;4.53;;;26.20;91.00;;;;;;4963867;28;20810;-76
2021/06/18 05:47:23;;;;;;;8.80;5.83;;;26.30;90.90;;;;;;4966529;28;20441;-75
2021/06/18 05:49:49;;;;;;;9.67;8.17;;;26.50;90.30;;;;;;4963839;28;20190;-77
2021/06/18 05:52:15;;;;;;;9.60;8.70;;;26.70;90.10;;;;;;4965763;28;20640;-76
2021/06/18 05:54:40;;;;;;;5.20;4.77;;;26.70;90.00;;;;;;4966902;28;20209;-75
2021/06/18 05:57:06;;;;;;;8.27;5.27;;;26.90;90.00;;;;;;4965044;28;20313;-77
2021/06/18 05:59:32;;;;;;;7.07;6.37;;;26.90;89.50;;;;;;4964943;28;20210;-76
2021/06/18 06:01:57;;;;;;;6.50;4.40;;;26.90;90.00;;;;;;4966330;28;20442;-76
2021/06/18 06:04:23;;;;;;;4.77;4.27;;;26.90;88.80;;;;;;4964867;28;20219;-75
2021/06/18 06:06:49;;;;;;;5.17;4.67;;;26.70;89.00;;;;;;4966586;28;20214;-74
2021/06/18 06:09:14;;;;;;;6.90;5.00;;;26.70;88.90;;;;;;4964468;28;20277;-77
2021/06/18 06:11:40;;;;;;;9.33;4.43;;;26.60;87.50;;;;;;4965023;28;20582;-77
2021/06/18 06:14:06;;;;;;;8.27;4.73;;;26.80;86.20;;;;;;4965335;28;20237;-75
2021/06/18 06:16:34;;;;;;;5.60;5.10;;;26.80;86.20;;;;;;4965159;28;20267;-76
2021/06/18 06:19:01;;;;;;;8.33;5.80;;;27.00;85.10;;;;;;4958947;28;20552;-73
2021/06/18 06:21:28;;;;;;;6.77;5.10;;;27.20;85.10;;;;;;4965831;28;20426;-75
2021/06/18 06:23:54;;;;;;;8.63;4.73;;;27.20;84.80;;;;;;4963779;28;20466;-75
2021/06/18 06:26:20;;;;;;;5.80;5.07;;;27.10;86.10;;;;;;4964681;28;21214;-77
2021/06/18 06:28:47;;;;;;;5.47;5.07;;;27.40;83.80;;;;;;4966164;28;20426;-76
2021/06/18 06:31:12;;;;;;;5.50;4.70;;;27.50;82.70;;;;;;4964567;28;20453;-75
2021/06/18 06:33:38;;;;;;;5.97;5.30;;;27.60;80.70;;;;;;4963329;28;20462;-75
2021/06/18 06:36:04;;;;;;;5.63;5.13;;;27.50;81.20;;;;;;4964881;28;20574;-73
2021/06/18 06:38:30;;;;;;;9.90;5.80;;;27.60;81.20;;;;;;4965115;28;20222;-75
2021/06/18 06:40:56;;;;;;;5.47;4.97;;;27.70;80.90;;;;;;4963486;28;20962;-75
2021/06/18 06:43:22;;;;;;;6.73;5.60;;;27.90;80.50;;;;;;4965152;28;20211;-73
2021/06/18 06:45:49;;;;;;;6.13;5.03;;;28.10;78.90;;;;;;4961959;28;20473;-75
2021/06/18 06:48:15;;;;;;;8.17;5.47;;;28.10;79.80;;;;;;4978201;28;20294;-73
2021/06/18 06:50:41;;;;;;;5.40;4.90;;;28.20;79.50;;;;;;4964561;28;20430;-76
2021/06/18 06:53:07;;;;;;;9.53;6.10;;;28.30;79.30;;;;;;4963798;28;20468;-74
2021/06/18 06:55:34;;;;;;;5.30;4.77;;;28.30;79.20;;;;;;4964534;28;20280;-74
2021/06/18 06:58:00;;;;;;;5.40;4.90;;;28.30;79.30;;;;;;4962208;28;20844;-73
2021/06/18 07:00:26;;;;;;;5.40;4.90;;;28.30;79.40;;;;;;4966365;28;20430;-74
2021/06/18 07:02:52;;;;;;;6.47;5.87;;;28.30;79.20;;;;;;4963683;28;20207;-74
2021/06/18 07:05:19;;;;;;;6.50;5.83;;;28.40;79.50;;;;;;4963423;28;20499;-74
2021/06/18 07:07:44;;;;;;;7.30;5.27;;;28.50;79.40;;;;;;4965968;28;20433;-75
2021/06/18 07:10:11;;;;;;;8.60;5.90;;;28.50;79.30;;;;;;4961549;28;20502;-74
2021/06/18 07:12:36;;;;;;;6.67;5.33;;;28.50;78.80;;;;;;4966269;28;20683;-75
2021/06/18 07:15:03;;;;;;;6.33;5.73;;;28.40;78.80;;;;;;4964180;28;20486;-74
2021/06/18 07:17:28;;;;;;;8.30;6.23;;;28.40;78.90;;;;;;4964995;28;20293;-75
2021/06/18 07:19:54;;;;;;;6.03;5.53;;;28.60;78.70;;;;;;4965150;28;21440;-74
2021/06/18 07:22:21;;;;;;;5.37;4.87;;;28.60;78.70;;;;;;4961764;28;20656;-74
2021/06/18 07:24:48;;;;;;;5.63;5.17;;;28.60;78.80;;;;;;4963516;28;20935;-74
2021/06/18 07:27:15;;;;;;;7.90;6.40;;;28.70;78.70;;;;;;4964961;28;20422;-75
2021/06/18 07:29:42;;;;;;;6.90;6.13;;;28.80;76.80;;;;;;4964147;28;20438;-74
2021/06/18 07:32:09;;;;;;;9.73;7.70;;;28.70;76.30;;;;;;4964320;28;20442;-73
2021/06/18 07:34:35;;;;;;;6.67;6.00;;;28.80;77.10;;;;;;4963428;28;20601;-72
2021/06/18 07:37:00;;;;;;;13.60;7.20;;;28.90;76.80;;;;;;4963515;28;20426;-73
2021/06/18 07:39:26;;;;;;;7.43;6.30;;;28.90;75.90;;;;;;4964900;28;22913;-74
2021/06/18 07:41:52;;;;;;;6.70;5.90;;;29.00;76.20;;;;;;4963977;28;20237;-72
2021/06/18 07:44:18;;;;;;;7.33;5.80;;;29.20;76.00;;;;;;4962469;28;20723;-73
2021/06/18 07:46:44;;;;;;;8.83;6.53;;;29.20;75.80;;;;;;4965429;28;20679;-73
2021/06/18 07:49:09;;;;;;;10.30;9.40;;;29.40;75.10;;;;;;4962205;28;20197;-74
2021/06/18 07:51:36;;;;;;;6.77;6.17;;;29.60;74.20;;;;;;4963819;28;20198;-73
2021/06/18 07:54:02;;;;;;;7.17;6.57;;;29.70;73.90;;;;;;4963602;28;20259;-74
2021/06/18 07:56:32;;;;;;;8.10;7.40;;;29.80;73.50;;;;;;4960328;28;21009;-74
2021/06/18 07:58:58;;;;;;;9.00;6.80;;;30.10;73.30;;;;;;4964318;28;20478;-74
2021/06/18 08:01:24;;;;;;;7.30;6.30;;;30.40;72.60;;;;;;4963855;28;20499;-75
2021/06/18 08:03:50;;;;;;;7.03;6.07;;;30.60;71.80;;;;;;4964094;28;20293;-74
2021/06/18 08:06:17;;;;;;;10.03;8.47;;;30.70;71.60;;;;;;4964756;28;20582;-73
2021/06/18 08:08:43;;;;;;;7.10;6.40;;;30.70;71.30;;;;;;4978193;28;20450;-74
2021/06/18 08:11:09;;;;;;;6.77;6.10;;;30.70;70.50;;;;;;4963217;28;20441;-74
2021/06/18 08:13:36;;;;;;;5.90;5.33;;;30.80;70.70;;;;;;4963733;28;20505;-74
2021/06/18 08:16:02;;;;;;;10.10;7.40;;;30.90;70.70;;;;;;4962419;28;20234;-73
2021/06/18 08:18:28;;;;;;;6.47;5.93;;;30.70;70.70;;;;;;4961319;28;20473;-73
2021/06/18 08:20:55;;;;;;;9.20;6.13;;;30.70;69.80;;;;;;4960861;28;21018;-74
2021/06/18 08:23:21;;;;;;;7.40;6.50;;;30.70;70.70;;;;;;4961589;28;20465;-73
2021/06/18 08:25:49;;;;;;;9.10;7.53;;;30.60;69.90;;;;;;4961991;28;20441;-74
2021/06/18 08:28:15;;;;;;;7.13;6.53;;;30.60;69.90;;;;;;4962555;28;20517;-74
2021/06/18 08:30:41;;;;;;;7.00;6.40;;;30.50;70.20;;;;;;4963994;28;20537;-72
2021/06/18 08:33:07;;;;;;;6.60;5.93;;;30.40;70.80;;;;;;4960213;28;20504;-73
2021/06/18 08:35:33;;;;;;;8.30;7.20;;;30.20;71.60;;;;;;4962278;28;20482;-74
2021/06/18 08:38:02;;;;;;;7.43;6.73;;;30.00;72.40;;;;;;4963833;28;20246;-73
2021/06/18 08:40:33;;;;;;;6.47;5.80;;;30.20;72.20;;;;;;4955603;28;21065;-73
2021/06/18 08:42:59;;;;;;;8.43;6.53;;;30.40;71.80;;;;;;4959804;28;22043;-73
2021/06/18 08:45:25;;;;;;;7.00;6.30;;;30.40;70.90;;;;;;4958018;28;20433;-74
2021/06/18 08:47:51;;;;;;;7.57;6.97;;;30.50;71.60;;;;;;4955451;28;20442;-73
2021/06/18 08:50:25;;;;;;;8.07;7.27;;;30.30;72.20;;;;;;4961004;28;20690;-74
2021/06/18 08:52:53;;;;;;;7.53;6.80;;;30.30;73.10;;;;;;4962357;28;20855;-74
2021/06/18 08:55:22;;;;;;;7.47;6.87;;;30.30;73.90;;;;;;4961513;28;20470;-74
2021/06/18 08:57:52;;;;;;;8.50;7.60;;;30.20;73.30;;;;;;4962722;28;20480;-73
2021/06/18 09:00:21;;;;;;;7.30;6.73;;;30.20;74.40;;;;;;4963060;28;20433;-75
2021/06/18 09:02:46;;;;;;;8.77;7.87;;;30.40;72.80;;;;;;4963594;28;20533;-73
2021/06/18 09:05:14;;;;;;;8.57;7.60;;;30.50;71.50;;;;;;4961980;28;21054;-74
2021/06/18 09:07:53;;;;;;;8.03;7.33;;;30.60;71.20;;;;;;4960800;28;20195;-75
2021/06/18 09:10:33;;;;;;;7.80;7.20;;;30.60;70.70;;;;;;4961879;28;20442;-71
2021/06/18 09:13:19;;;;;;;7.77;7.07;;;30.60;71.10;;;;;;4946268;28;21262;-73
2021/06/18 09:15:53;;;;;;;7.70;7.00;;;30.50;72.10;;;;;;4962956;28;20446;-73
2021/06/18 09:18:33;;;;;;;7.97;7.27;;;30.80;70.60;;;;;;4960805;28;21051;-74
2021/06/18 09:21:01;;;;;;;7.20;6.60;;;30.90;70.00;;;;;;4963305;28;20448;-73
2021/06/18 09:23:28;;;;;;;7.67;7.03;;;31.10;69.90;;;;;;4959062;28;20497;-73
2021/06/18 09:26:25;;;;;;;7.80;6.80;;;31.10;70.00;;;;;;4964554;28;20441;-73
2021/06/18 09:29:04;;;;;;;8.37;7.57;;;31.20;70.70;;;;;;4963691;28;20418;-73
2021/06/18 09:31:49;;;;;;;7.63;7.10;;;31.30;71.60;;;;;;4961150;28;20472;-73
2021/06/18 09:35:00;;;;;;;7.53;6.93;;;31.60;69.20;;;;;;4962634;28;20958;-75
2021/06/18 09:37:35;;;;;;;7.83;7.03;;;31.90;68.40;;;;;;4962614;28;20488;-74
2021/06/18 09:40:01;;;;;;;7.30;6.80;;;32.10;68.70;;;;;;4959874;28;20435;-76
2021/06/18 09:42:27;;;;;;;8.73;7.93;;;32.20;68.10;;;;;;4962733;28;20977;-72
2021/06/18 09:45:27;;;;;;;7.67;6.97;;;32.40;68.50;;;;;;4962018;28;20214;-75
2021/06/18 09:48:06;;;;;;;7.80;7.20;;;32.60;68.80;;;;;;4952952;28;20210;-73
2021/06/18 09:50:32;;;;;;;7.90;7.00;;;32.80;67.40;;;;;;4965588;28;20416;-75
2021/06/18 09:53:22;;;;;;;10.80;7.10;;;33.10;66.40;;;;;;4966127;28;20649;-74
2021/06/18 09:56:00;;;;;;;12.90;8.57;;;33.30;66.70;;;;;;4967108;28;20898;-75
2021/06/18 09:58:41;;;;;;;9.87;7.40;;;33.30;66.30;;;;;;4964532;28;21082;-75
2021/06/18 10:01:17;;;;;;;8.30;7.60;;;33.20;66.20;;;;;;4965559;28;20463;-74
2021/06/18 10:04:00;;;;;;;9.77;7.30;;;33.30;67.10;;;;;;4965785;28;20453;-74
2021/06/18 10:06:28;;;;;;;10.10;7.63;;;33.50;66.00;;;;;;4965450;28;20830;-75
2021/06/18 10:08:54;;;;;;;11.07;7.43;;;33.60;65.60;;;;;;4966774;28;20867;-75
2021/06/18 10:11:20;;;;;;;8.77;8.00;;;33.70;64.00;;;;;;4965972;28;20455;-74
2021/06/18 10:13:46;;;;;;;8.00;7.20;;;33.70;65.10;;;;;;4962865;28;20475;-73
2021/06/18 10:16:16;;;;;;;9.57;7.63;;;33.90;64.40;;;;;;4965938;28;20443;-74
2021/06/18 10:18:42;;;;;;;9.30;8.40;;;34.00;63.10;;;;;;4965001;28;20462;-74
2021/06/18 10:21:08;;;;;;;8.80;8.00;;;34.10;64.20;;;;;;4963727;28;21070;-75
2021/06/18 10:23:34;;;;;;;9.23;7.73;;;34.10;63.30;;;;;;4965486;28;20202;-74
2021/06/18 10:26:04;;;;;;;9.50;8.60;;;33.60;63.10;;;;;;4964421;28;20396;-74
2021/06/18 10:28:34;;;;;;;8.30;7.50;;;33.70;63.20;;;;;;4964634;28;21335;-74
2021/06/18 10:31:07;;;;;;;8.50;7.70;;;34.00;62.70;;;;;;4963990;28;20442;-74
2021/06/18 10:33:38;;;;;;;9.83;8.83;;;34.10;61.30;;;;;;4965816;28;20461;-75
2021/06/18 10:36:08;;;;;;;9.17;8.37;;;34.30;61.60;;;;;;4961019;28;20420;-76
2021/06/18 10:38:38;;;;;;;11.27;10.10;;;34.50;61.60;;;;;;4962743;28;21011;-75
2021/06/18 10:41:24;;;;;;;8.53;7.93;;;34.60;61.00;;;;;;4963251;28;20393;-76
2021/06/18 10:43:57;;;;;;;10.53;9.53;;;34.70;60.80;;;;;;4960609;28;20436;-76
2021/06/18 10:46:28;;;;;;;8.57;7.87;;;34.80;60.70;;;;;;4964406;28;20499;-75
2021/06/18 10:48:55;;;;;;;9.23;8.47;;;34.80;60.80;;;;;;4978954;28;20465;-74
2021/06/18 10:51:27;;;;;;;11.90;10.80;;;34.90;59.80;;;;;;4962549;28;21037;-75
2021/06/18 10:54:11;;;;;;;9.20;8.30;;;35.00;60.80;;;;;;4965156;28;20458;-75
2021/06/18 10:56:49;;;;;;;10.13;9.30;;;35.00;60.20;;;;;;4963498;28;20533;-75
2021/06/18 10:59:20;;;;;;;9.30;8.50;;;34.90;60.00;;;;;;4959116;28;20533;-77
2021/06/18 11:01:46;;;;;;;9.53;8.73;;;35.10;59.20;;;;;;4958667;28;20445;-74
2021/06/18 11:04:12;;;;;;;8.50;7.80;;;35.20;58.60;;;;;;4963968;28;20795;-75
2021/06/18 11:06:44;;;;;;;9.30;8.40;;;35.10;58.70;;;;;;4962993;28;20416;-78
2021/06/18 11:09:10;;;;;;;7.77;7.17;;;35.30;58.60;;;;;;4963088;28;21133;-75
2021/06/18 11:11:36;;;;;;;8.00;7.40;;;35.20;59.30;;;;;;4961609;28;20974;-75
2021/06/18 11:14:08;;;;;;;7.47;6.97;;;35.30;58.80;;;;;;4962648;28;20493;-75
2021/06/18 11:16:34;;;;;;;10.37;9.30;;;35.40;58.60;;;;;;4962900;28;20265;-75
2021/06/18 11:19:23;;;;;;;8.97;8.07;;;35.40;58.90;;;;;;4960993;28;20469;-76
2021/06/18 11:21:49;;;;;;;8.10;7.50;;;35.50;59.00;;;;;;4961899;28;20400;-75
2021/06/18 11:24:50;;;;;;;8.77;8.13;;;35.50;57.20;;;;;;4963324;28;20440;-76
2021/06/18 11:27:26;;;;;;;8.33;7.53;;;35.70;56.30;;;;;;4883640;29;20193;-76
2021/06/18 11:30:23;;;;;;;7.83;7.13;;;35.50;56.10;;;;;;4951539;28;20408;-76
2021/06/18 11:32:48;;;;;;;8.03;7.33;;;35.20;57.10;;;;;;4962862;28;20463;-76
2021/06/18 11:35:32;;;;;;;8.40;7.70;;;35.60;56.60;;;;;;4963924;28;20492;-76
2021/06/18 11:37:59;;;;;;;7.70;7.10;;;35.90;56.90;;;;;;4964741;28;20290;-76
2021/06/18 11:40:25;;;;;;;8.80;7.90;;;36.30;56.50;;;;;;4963798;28;20410;-76
2021/06/18 11:42:51;;;;;;;8.40;7.60;;;36.50;56.20;;;;;;4963771;28;20514;-75
2021/06/18 11:45:17;;;;;;;7.67;7.00;;;36.40;56.10;;;;;;4965255;28;20205;-75
2021/06/18 11:47:43;;;;;;;8.67;6.80;;;36.20;56.50;;;;;;4959827;28;20222;-75
2021/06/18 11:50:09;;;;;;;7.83;7.13;;;36.40;55.20;;;;;;4971910;28;20201;-75
2021/06/18 11:52:35;;;;;;;7.63;7.03;;;36.60;54.30;;;;;;4962447;28;20404;-75
2021/06/18 11:55:00;;;;;;;8.47;7.60;;;36.60;53.70;;;;;;4963176;28;20461;-75
2021/06/18 11:57:26;;;;;;;9.03;7.00;;;36.90;54.70;;;;;;4962325;28;20206;-76
2021/06/18 11:59:58;;;;;;;8.50;7.80;;;37.60;53.00;;;;;;4946330;28;20209;-76
2021/06/18 12:02:28;;;;;;;7.10;6.50;;;37.90;53.30;;;;;;4957568;28;20186;-75
2021/06/18 12:05:08;;;;;;;7.33;6.80;;;37.80;52.30;;;;;;4957698;28;20556;-76
2021/06/18 12:07:35;;;;;;;7.73;7.10;;;38.80;51.10;;;;;;4960347;28;20512;-78
2021/06/18 12:10:02;;;;;;;8.23;7.57;;;39.80;50.30;;;;;;4962887;28;20446;-76
2021/06/18 12:12:28;;;;;;;7.67;6.87;;;39.30;49.30;;;;;;4964396;28;20423;-76
2021/06/18 12:14:58;;;;;;;8.27;7.60;;;38.50;49.70;;;;;;4959538;28;20474;-76
2021/06/18 12:17:25;;;;;;;8.07;7.23;;;38.00;50.90;;;;;;4958745;28;20274;-75
2021/06/18 12:19:52;;;;;;;14.90;6.43;;;38.10;51.50;;;;;;4957450;28;20434;-76
2021/06/18 12:22:28;;;;;;;7.23;6.63;;;38.70;50.00;;;;;;4960540;28;20433;-76
2021/06/18 12:24:58;;;;;;;6.83;6.33;;;39.60;48.70;;;;;;4974028;28;20489;-76
2021/06/18 12:27:27;;;;;;;7.13;6.43;;;40.60;47.70;;;;;;4963935;28;20495;-76
2021/06/18 12:29:59;;;;;;;7.67;6.97;;;42.10;46.00;;;;;;4963990;28;20441;-76
2021/06/18 12:32:31;;;;;;;7.77;7.03;;;43.10;44.90;;;;;;4962617;28;21294;-76
2021/06/18 12:35:01;;;;;;;7.00;6.33;;;43.90;43.40;;;;;;4964849;28;20544;-76
2021/06/18 12:37:35;;;;;;;8.37;7.10;;;44.50;42.40;;;;;;4959542;28;20489;-75
2021/06/18 12:40:12;;;;;;;7.03;6.53;;;44.90;41.70;;;;;;4961147;28;20445;-75
2021/06/18 12:42:47;;;;;;;9.30;8.43;;;45.20;40.70;;;;;;4962067;28;20425;-75
2021/06/18 12:45:13;;;;;;;7.80;7.20;;;44.50;42.40;;;;;;4961207;28;20457;-76
2021/06/18 12:47:41;;;;;;;8.50;7.80;;;45.20;42.80;;;;;;4961765;28;20511;-75
2021/06/18 12:50:26;;;;;;;8.10;7.30;;;45.70;42.70;;;;;;4961986;28;20449;-75
2021/06/18 12:52:55;;;;;;;9.17;8.37;;;45.10;42.50;;;;;;4962075;28;20496;-76